Time;durP1;ratioP1;P1;durP2;ratioP2;P2;SDS_P1;SDS_P2;PMS_P1;PMS_P2;Temp;Humidity;BMP_temperature;BMP_pressure;BME280_temperature;BME280_humidity;BME280_pressure;Samples;Min_cycle;Max_cycle;Signal;HPM_P1;HPM_P2
2023/05/05 00:04:18;;;;;;;33.60;19.50;;;23.20;57.90;;;;;;222422;1247;22735;-59
2023/05/05 00:09:23;;;;;;;29.70;19.80;;;23.30;57.60;;;;;;222365;1269;22589;-58
2023/05/05 00:14:27;;;;;;;31.30;18.50;;;23.20;58.00;;;;;;222843;1269;24187;-59
2023/05/05 00:19:32;;;;;;;28.60;19.10;;;23.20;57.70;;;;;;222427;1266;22507;-59
2023/05/05 00:24:36;;;;;;;30.00;17.90;;;23.10;57.80;;;;;;222546;1262;25275;-60
2023/05/05 00:29:41;;;;;;;30.20;18.00;;;23.10;57.70;;;;;;222685;1265;22508;-60
2023/05/05 00:34:45;;;;;;;28.50;18.10;;;23.00;57.60;;;;;;222692;1263;23935;-60
2023/05/05 00:39:50;;;;;;;28.80;19.10;;;23.00;57.60;;;;;;222287;1269;22762;-58
2023/05/05 00:44:55;;;;;;;26.40;17.60;;;23.00;57.80;;;;;;222307;1263;25255;-58
2023/05/05 00:49:59;;;;;;;25.60;16.90;;;23.00;57.60;;;;;;222845;1256;24217;-58
2023/05/05 00:55:04;;;;;;;27.70;17.10;;;23.00;57.70;;;;;;222714;1263;23279;-59
2023/05/05 01:00:09;;;;;;;23.60;16.40;;;23.00;57.70;;;;;;222478;1268;24254;-57
2023/05/05 01:05:15;;;;;;;25.20;16.90;;;23.00;57.70;;;;;;222737;1268;22502;-59
2023/05/05 01:10:41;;;;;;;24.40;15.90;;;22.90;58.10;;;;;;222737;1269;24221;-59
2023/05/05 01:16:11;;;;;;;21.40;14.00;;;23.10;58.30;;;;;;222835;1266;25214;-60
2023/05/05 01:21:47;;;;;;;21.10;14.10;;;23.50;57.30;;;;;;223237;1263;25312;-60
2023/05/05 01:27:15;;;;;;;20.40;13.80;;;23.80;56.40;;;;;;222713;1269;22542;-58
2023/05/05 01:32:26;;;;;;;19.90;13.00;;;24.00;56.10;;;;;;222835;1267;22725;-59
2023/05/05 01:37:40;;;;;;;22.10;14.20;;;24.00;55.60;;;;;;222775;1265;25591;-60
2023/05/05 01:42:44;;;;;;;22.10;14.40;;;24.10;55.50;;;;;;222726;1266;22630;-59
2023/05/05 01:47:51;;;;;;;17.30;12.50;;;24.20;55.30;;;;;;222683;1263;26711;-59
2023/05/05 01:52:58;;;;;;;20.10;13.50;;;24.30;55.10;;;;;;222823;1266;24901;-61
2023/05/05 01:58:04;;;;;;;17.60;12.80;;;24.30;55.00;;;;;;223016;1268;23517;-61
2023/05/05 02:03:10;;;;;;;17.10;12.30;;;24.40;54.70;;;;;;222810;1267;26493;-59
2023/05/05 02:08:15;;;;;;;16.40;11.70;;;24.50;54.70;;;;;;222650;1263;22517;-60
2023/05/05 02:13:22;;;;;;;16.50;12.30;;;24.60;54.50;;;;;;222397;1268;359662;-58
2023/05/05 02:18:27;;;;;;;17.80;12.40;;;24.70;54.60;;;;;;223008;1267;22918;-56
2023/05/05 02:23:32;;;;;;;17.70;11.80;;;24.70;54.20;;;;;;222723;1268;22510;-59
2023/05/05 02:28:47;;;;;;;15.90;11.90;;;24.80;53.80;;;;;;223157;1263;25312;-60
2023/05/05 02:33:55;;;;;;;16.60;11.30;;;24.70;54.30;;;;;;223268;1266;24225;-59
2023/05/05 02:39:03;;;;;;;16.80;11.40;;;24.60;54.60;;;;;;222851;1266;25414;-59
2023/05/05 02:44:12;;;;;;;17.80;11.70;;;24.50;54.90;;;;;;222687;1268;22500;-58
2023/05/05 02:49:17;;;;;;;14.50;11.00;;;24.40;55.00;;;;;;222881;1266;24244;-59
2023/05/05 02:54:21;;;;;;;13.50;10.70;;;24.50;55.60;;;;;;222854;1266;25287;-58
2023/05/05 02:59:36;;;;;;;15.30;11.60;;;24.50;55.00;;;;;;222587;1263;22609;-58
2023/05/05 03:04:48;;;;;;;12.40;10.20;;;24.40;55.00;;;;;;222899;1259;24240;-62
2023/05/05 03:10:15;;;;;;;15.10;10.40;;;24.40;55.40;;;;;;222560;1266;25198;-58
2023/05/05 03:15:30;;;;;;;12.50;10.00;;;24.30;54.80;;;;;;222927;1268;22589;-60
2023/05/05 03:20:37;;;;;;;13.00;9.80;;;24.30;54.70;;;;;;223228;1266;22606;-57
2023/05/05 03:25:47;;;;;;;13.30;10.50;;;24.20;55.00;;;;;;223089;1264;22555;-59
2023/05/05 03:31:13;;;;;;;12.90;10.10;;;24.10;55.60;;;;;;222870;1268;22524;-55
2023/05/05 03:36:18;;;;;;;10.80;9.60;;;24.10;55.40;;;;;;222636;1269;22510;-57
2023/05/05 03:41:23;;;;;;;13.30;9.50;;;24.00;55.90;;;;;;222890;1269;22519;-58
2023/05/05 03:46:28;;;;;;;10.70;9.50;;;23.90;55.80;;;;;;222641;1263;22720;-57
2023/05/05 03:51:32;;;;;;;13.10;9.90;;;23.80;55.70;;;;;;223224;1263;24820;-58
2023/05/05 03:56:37;;;;;;;13.30;10.50;;;23.80;55.90;;;;;;222020;1247;24204;-59
2023/05/05 04:01:45;;;;;;;12.30;9.40;;;23.80;55.90;;;;;;222482;1269;22537;-57
2023/05/05 04:06:49;;;;;;;10.70;9.30;;;23.70;55.80;;;;;;222584;1268;25259;-58
2023/05/05 04:11:54;;;;;;;12.30;8.90;;;23.70;56.10;;;;;;222953;1266;22588;-58
2023/05/05 04:17:00;;;;;;;11.50;9.70;;;23.60;56.20;;;;;;222795;1267;22558;-62
2023/05/05 04:22:05;;;;;;;11.10;8.70;;;23.50;56.40;;;;;;222913;1266;22587;-61
2023/05/05 04:27:10;;;;;;;10.60;8.50;;;23.40;56.40;;;;;;222709;1269;22558;-59
2023/05/05 04:32:16;;;;;;;13.10;9.80;;;23.40;56.60;;;;;;222387;1266;24133;-59
2023/05/05 04:37:21;;;;;;;11.70;8.60;;;23.40;56.70;;;;;;222666;1268;22529;-58
2023/05/05 04:42:25;;;;;;;10.40;8.70;;;23.30;57.10;;;;;;222730;1266;22585;-59
2023/05/05 04:47:30;;;;;;;11.30;8.30;;;23.30;57.10;;;;;;223205;1267;25271;-60
2023/05/05 04:52:35;;;;;;;11.90;9.20;;;23.30;56.80;;;;;;222712;1261;25417;-58
2023/05/05 04:57:39;;;;;;;10.00;8.40;;;23.30;56.90;;;;;;222571;1266;25310;-58
2023/05/05 05:02:44;;;;;;;9.30;7.90;;;23.20;57.00;;;;;;222421;1266;22582;-59
2023/05/05 05:07:49;;;;;;;9.90;8.50;;;23.20;57.20;;;;;;222585;1266;22811;-57
2023/05/05 05:12:54;;;;;;;8.60;7.60;;;23.20;56.90;;;;;;222673;1261;24741;-57
2023/05/05 05:17:58;;;;;;;9.50;8.30;;;23.20;57.10;;;;;;222686;1268;22509;-59
2023/05/05 05:23:03;;;;;;;9.80;7.60;;;23.20;57.10;;;;;;222897;1263;25458;-57
2023/05/05 05:28:10;;;;;;;9.00;8.00;;;23.10;56.90;;;;;;222974;1269;24218;-59
2023/05/05 05:33:19;;;;;;;8.60;7.70;;;23.20;57.20;;;;;;222713;1263;22520;-58
2023/05/05 05:38:24;;;;;;;9.40;7.90;;;23.10;56.90;;;;;;222928;1263;22510;-59
2023/05/05 05:43:30;;;;;;;8.30;7.30;;;23.20;56.60;;;;;;222654;1266;22732;-59
2023/05/05 05:48:37;;;;;;;8.90;7.70;;;23.10;57.00;;;;;;223070;1263;22914;-58
2023/05/05 05:53:41;;;;;;;9.00;8.00;;;23.10;57.30;;;;;;222761;1268;25386;-59
2023/05/05 05:58:47;;;;;;;10.60;8.40;;;23.10;57.00;;;;;;223024;1247;23914;-57
2023/05/05 06:03:52;;;;;;;14.20;8.40;;;23.10;57.20;;;;;;222502;1254;22527;-59
2023/05/05 06:08:57;;;;;;;13.30;7.90;;;23.10;58.00;;;;;;222345;1264;23883;-58
2023/05/05 06:14:01;;;;;;;8.40;7.50;;;23.10;57.60;;;;;;222784;1268;24675;-59
2023/05/05 06:19:08;;;;;;;11.20;8.20;;;23.20;57.50;;;;;;222647;1266;24173;-59
2023/05/05 06:24:13;;;;;;;13.00;7.40;;;23.30;57.30;;;;;;222670;1267;23126;-52
2023/05/05 06:29:17;;;;;;;12.30;8.10;;;23.30;58.00;;;;;;222330;1262;22523;-54
2023/05/05 06:34:21;;;;;;;14.00;8.00;;;23.40;57.40;;;;;;222516;1267;22623;-51
2023/05/05 06:39:25;;;;;;;55.40;23.50;;;23.50;57.40;;;;;;222609;1269;22568;-51
2023/05/05 06:44:30;;;;;;;121.60;54.50;;;23.40;58.30;;;;;;222480;1262;25255;-52
2023/05/05 06:49:34;;;;;;;139.70;57.90;;;23.50;58.00;;;;;;222309;1269;25441;-52
2023/05/05 06:54:38;;;;;;;160.90;66.10;;;23.50;58.00;;;;;;222553;1269;25269;-55
2023/05/05 06:59:43;;;;;;;134.50;58.10;;;23.50;58.40;;;;;;222585;1248;23882;-56
2023/05/05 07:04:47;;;;;;;121.90;54.10;;;23.50;58.10;;;;;;222609;1263;22522;-56
2023/05/05 07:09:51;;;;;;;138.40;56.30;;;23.60;58.20;;;;;;222376;1263;24240;-57
2023/05/05 07:14:56;;;;;;;111.20;47.20;;;23.50;58.10;;;;;;222663;1266;25367;-58
2023/05/05 07:20:01;;;;;;;103.70;48.90;;;23.50;58.30;;;;;;222405;1268;22637;-58
2023/05/05 07:25:06;;;;;;;101.30;44.10;;;23.50;57.90;;;;;;222900;1268;22620;-57
2023/05/05 07:30:10;;;;;;;97.20;44.00;;;23.40;57.80;;;;;;222426;1263;24202;-58
2023/05/05 07:35:19;;;;;;;83.70;42.60;;;23.40;57.20;;;;;;222658;1268;23925;-57
2023/05/05 07:40:24;;;;;;;87.80;42.10;;;23.40;57.00;;;;;;222864;1265;25295;-59
2023/05/05 07:45:30;;;;;;;80.70;39.40;;;23.50;56.90;;;;;;222625;1269;26646;-58
2023/05/05 07:50:35;;;;;;;82.60;39.20;;;23.60;56.80;;;;;;222588;1266;23010;-58
2023/05/05 07:55:41;;;;;;;69.40;36.20;;;23.50;56.80;;;;;;222869;1263;25433;-59
2023/05/05 08:00:45;;;;;;;73.00;36.60;;;23.50;56.50;;;;;;222425;1269;24330;-58
2023/05/05 08:05:52;;;;;;;66.50;34.30;;;23.50;56.70;;;;;;222674;1267;25462;-59
2023/05/05 08:10:57;;;;;;;70.50;34.30;;;23.50;56.60;;;;;;222518;1259;22505;-60
2023/05/05 08:16:01;;;;;;;66.80;34.10;;;23.60;56.40;;;;;;222740;1266;22526;-58
2023/05/05 08:21:08;;;;;;;57.30;30.50;;;23.50;56.40;;;;;;222613;1265;24977;-58
2023/05/05 08:26:12;;;;;;;56.30;29.60;;;23.50;56.50;;;;;;222801;1261;23879;-57
2023/05/05 08:31:16;;;;;;;53.80;29.70;;;23.50;56.10;;;;;;222692;1268;22927;-57
2023/05/05 08:36:21;;;;;;;49.00;27.30;;;23.50;56.10;;;;;;222237;1266;25482;-56
2023/05/05 08:41:25;;;;;;;48.50;26.80;;;23.50;55.50;;;;;;222462;1264;22511;-57
2023/05/05 08:46:30;;;;;;;47.00;26.20;;;23.60;55.40;;;;;;222568;1266;22787;-56
2023/05/05 08:51:41;;;;;;;54.60;25.70;;;23.60;55.50;;;;;;222528;1266;24432;-57
2023/05/05 08:56:49;;;;;;;47.30;25.30;;;23.60;56.60;;;;;;222664;1254;22601;-56
2023/05/05 09:01:56;;;;;;;56.60;28.40;;;23.60;55.80;;;;;;222459;1269;22515;-59
2023/05/05 09:07:01;;;;;;;48.60;24.60;;;23.70;59.30;;;;;;222737;1263;23710;-56
2023/05/05 09:12:05;;;;;;;46.60;25.50;;;23.60;57.60;;;;;;222506;1264;25456;-58
2023/05/05 09:17:30;;;;;;;50.10;26.00;;;23.70;58.90;;;;;;222410;1266;22568;-61
2023/05/05 09:22:52;;;;;;;49.00;24.40;;;23.70;57.80;;;;;;222330;1254;25571;-57
2023/05/05 09:27:57;;;;;;;35.90;21.70;;;23.80;58.10;;;;;;222661;1248;22509;-58
2023/05/05 09:33:01;;;;;;;53.30;25.80;;;23.70;56.60;;;;;;222455;1266;22511;-59
2023/05/05 09:38:12;;;;;;;49.60;25.50;;;23.70;57.30;;;;;;222593;1269;24180;-58
2023/05/05 09:43:18;;;;;;;47.50;25.00;;;23.80;57.20;;;;;;222537;1269;22629;-59
2023/05/05 09:48:30;;;;;;;61.80;28.00;;;23.90;57.40;;;;;;222504;1263;23905;-58
2023/05/05 09:53:41;;;;;;;50.40;28.80;;;23.90;57.90;;;;;;222553;1269;22526;-60
2023/05/05 09:58:45;;;;;;;53.40;25.70;;;23.90;58.40;;;;;;222344;1269;24257;-59
2023/05/05 10:03:53;;;;;;;63.30;29.20;;;23.90;58.10;;;;;;222759;1265;24042;-58
2023/05/05 10:09:01;;;;;;;62.50;30.70;;;24.00;59.60;;;;;;222612;1267;24348;-59
2023/05/05 10:14:06;;;;;;;52.00;26.60;;;24.00;59.80;;;;;;222540;1269;24375;-59
2023/05/05 10:19:15;;;;;;;48.20;24.80;;;24.00;60.90;;;;;;223006;1269;25559;-59
2023/05/05 10:24:36;;;;;;;54.30;25.80;;;24.10;58.80;;;;;;222392;1267;25392;-58
2023/05/05 10:29:46;;;;;;;49.90;24.00;;;24.10;61.20;;;;;;222735;1268;25364;-58
2023/05/05 10:34:58;;;;;;;45.30;21.00;;;24.20;59.80;;;;;;222956;1263;22628;-57
2023/05/05 10:40:03;;;;;;;38.70;20.80;;;24.20;57.90;;;;;;222621;1269;25313;-58
2023/05/05 10:45:08;;;;;;;44.30;21.40;;;24.20;60.00;;;;;;222478;1268;22521;-59
2023/05/05 10:50:42;;;;;;;37.30;19.50;;;24.30;61.10;;;;;;222661;1269;22510;-59
2023/05/05 10:56:09;;;;;;;35.20;18.90;;;24.20;57.50;;;;;;222438;1267;25255;-57
2023/05/05 11:01:30;;;;;;;29.40;16.00;;;24.20;57.70;;;;;;222949;1256;22538;-58
2023/05/05 11:06:35;;;;;;;36.10;16.20;;;24.10;57.30;;;;;;222845;1264;25415;-60
2023/05/05 11:12:02;;;;;;;34.50;17.40;;;24.20;55.90;;;;;;222325;1254;22513;-58
2023/05/05 11:17:46;;;;;;;36.20;17.80;;;24.20;59.10;;;;;;222421;1264;22818;-57
2023/05/05 11:23:03;;;;;;;34.40;17.00;;;24.20;58.60;;;;;;222341;1267;26552;-60
2023/05/05 11:28:15;;;;;;;34.40;16.60;;;24.30;57.60;;;;;;222723;1263;25248;-59
2023/05/05 11:33:30;;;;;;;25.80;15.70;;;24.30;57.50;;;;;;222835;1266;22630;-58
2023/05/05 11:38:53;;;;;;;26.60;14.40;;;24.30;55.70;;;;;;222348;1269;22737;-57
2023/05/05 11:44:14;;;;;;;25.70;13.80;;;24.40;54.70;;;;;;222851;1261;22518;-58
2023/05/05 11:49:30;;;;;;;27.70;14.40;;;24.40;55.40;;;;;;222698;1264;25256;-57
2023/05/05 11:54:37;;;;;;;23.60;13.90;;;24.40;55.70;;;;;;222391;1267;25305;-56
2023/05/05 12:00:09;;;;;;;23.90;14.30;;;24.40;55.50;;;;;;222634;1264;24214;-57
2023/05/05 12:05:19;;;;;;;21.20;12.90;;;24.40;55.60;;;;;;223326;1267;22557;-57
2023/05/05 12:10:24;;;;;;;22.60;12.50;;;24.40;55.80;;;;;;222861;1260;22620;-58
2023/05/05 12:15:30;;;;;;;22.90;12.80;;;24.40;55.50;;;;;;222659;1261;22677;-58
2023/05/05 12:20:35;;;;;;;21.40;13.00;;;24.40;55.60;;;;;;223009;1267;23256;-59
2023/05/05 12:25:40;;;;;;;19.40;13.00;;;24.30;55.50;;;;;;222564;1257;22633;-58
2023/05/05 12:30:56;;;;;;;21.50;11.70;;;24.30;55.10;;;;;;222476;1268;22524;-57
2023/05/05 12:36:00;;;;;;;18.40;11.60;;;24.30;55.20;;;;;;222492;1267;22536;-56
2023/05/05 12:41:05;;;;;;;14.10;10.60;;;24.40;54.70;;;;;;222550;1267;22525;-57
2023/05/05 12:46:13;;;;;;;17.00;11.00;;;24.50;55.50;;;;;;223027;1266;24889;-63
2023/05/05 12:51:19;;;;;;;19.80;10.60;;;24.60;54.80;;;;;;222680;1264;23883;-58
2023/05/05 12:56:44;;;;;;;19.60;10.90;;;24.70;55.00;;;;;;222710;1264;22754;-59
2023/05/05 13:01:50;;;;;;;16.40;10.60;;;24.50;55.30;;;;;;222740;1254;22504;-56
2023/05/05 13:07:12;;;;;;;15.60;9.90;;;24.50;54.90;;;;;;222396;1263;22538;-57
2023/05/05 13:12:18;;;;;;;18.80;9.40;;;24.50;54.60;;;;;;222456;1264;22511;-58
2023/05/05 13:17:22;;;;;;;15.70;9.80;;;24.50;54.60;;;;;;222673;1269;22522;-57
2023/05/05 13:22:28;;;;;;;14.70;9.60;;;24.50;54.60;;;;;;222849;1260;22808;-56
2023/05/05 13:27:33;;;;;;;14.60;8.80;;;24.50;54.30;;;;;;222634;1268;23004;-57
2023/05/05 13:32:37;;;;;;;14.30;8.30;;;24.60;53.90;;;;;;222912;1266;25224;-59
2023/05/05 13:37:43;;;;;;;10.50;7.30;;;24.70;49.10;;;;;;222906;1268;24228;-55
2023/05/05 13:42:47;;;;;;;9.20;7.10;;;24.40;50.60;;;;;;222814;1264;24227;-55
2023/05/05 13:47:51;;;;;;;10.40;6.00;;;24.40;47.60;;;;;;222666;1264;22526;-58
2023/05/05 13:52:56;;;;;;;6.20;5.00;;;24.40;45.90;;;;;;222722;1259;22527;-56
2023/05/05 13:58:01;;;;;;;32.60;10.10;;;24.50;45.50;;;;;;222935;1266;22515;-57
2023/05/05 14:03:06;;;;;;;8.40;5.10;;;24.50;44.50;;;;;;223741;1263;24042;-58
2023/05/05 14:08:12;;;;;;;8.90;4.70;;;24.50;44.30;;;;;;222532;1264;24249;-58
2023/05/05 14:13:16;;;;;;;10.80;5.00;;;24.40;44.70;;;;;;222904;1264;208156;-56
2023/05/05 14:18:21;;;;;;;7.60;4.90;;;24.40;45.10;;;;;;222666;1263;22552;-58
2023/05/05 14:23:26;;;;;;;6.20;4.20;;;24.40;43.50;;;;;;222779;1253;22630;-58
2023/05/05 14:28:30;;;;;;;5.00;4.50;;;24.40;44.10;;;;;;222785;1245;24416;-59
2023/05/05 14:33:34;;;;;;;5.70;4.90;;;24.40;45.30;;;;;;222529;1264;26481;-59
2023/05/05 14:38:38;;;;;;;4.60;3.60;;;24.30;43.80;;;;;;222760;1255;22618;-58
2023/05/05 14:43:43;;;;;;;6.50;4.20;;;24.30;43.30;;;;;;222579;1269;24228;-59
2023/05/05 14:48:48;;;;;;;6.00;3.90;;;24.30;43.90;;;;;;222291;1264;22633;-59
2023/05/05 14:53:52;;;;;;;15.80;7.80;;;24.30;43.70;;;;;;222638;1263;22519;-57
2023/05/05 14:58:57;;;;;;;17.30;7.10;;;24.40;48.60;;;;;;222649;1263;22525;-56
2023/05/05 15:04:01;;;;;;;8.90;5.30;;;24.30;51.10;;;;;;222225;1263;22504;-56
2023/05/05 15:09:05;;;;;;;11.90;5.00;;;24.30;49.00;;;;;;222394;1266;22511;-57
2023/05/05 15:14:10;;;;;;;10.30;5.20;;;24.50;47.30;;;;;;222596;1268;25478;-58
2023/05/05 15:19:14;;;;;;;7.10;4.90;;;24.50;50.60;;;;;;223185;1263;22995;-59
2023/05/05 15:24:20;;;;;;;8.20;4.60;;;24.40;47.70;;;;;;222515;1263;22511;-58
2023/05/05 15:29:24;;;;;;;8.30;4.00;;;24.40;49.30;;;;;;222971;1253;22522;-58
2023/05/05 15:34:29;;;;;;;10.40;4.20;;;24.30;46.90;;;;;;222543;1250;22640;-55
2023/05/05 15:39:33;;;;;;;8.70;4.80;;;24.30;46.80;;;;;;222657;1264;23887;-63
2023/05/05 15:44:37;;;;;;;4.90;4.20;;;24.50;49.10;;;;;;222739;1254;23402;-63
2023/05/05 15:49:42;;;;;;;6.30;3.70;;;24.60;48.30;;;;;;222905;1263;24056;-58
2023/05/05 15:54:46;;;;;;;5.70;3.80;;;24.50;47.10;;;;;;222815;1263;22514;-56
2023/05/05 15:59:53;;;;;;;6.50;4.50;;;24.50;47.30;;;;;;222383;1269;22500;-54
2023/05/05 16:04:57;;;;;;;4.50;3.10;;;24.40;46.70;;;;;;222730;1262;22514;-57
2023/05/05 16:10:02;;;;;;;7.90;3.90;;;24.40;46.30;;;;;;223971;1265;22527;-58
2023/05/05 16:15:07;;;;;;;5.80;3.70;;;24.40;46.10;;;;;;222541;1253;24215;-58
2023/05/05 16:20:11;;;;;;;4.60;3.40;;;24.30;46.00;;;;;;222314;1263;24184;-59
2023/05/05 16:25:17;;;;;;;4.20;3.10;;;24.30;46.00;;;;;;222531;1263;22635;-60
2023/05/05 16:30:21;;;;;;;4.90;2.80;;;24.30;45.80;;;;;;222274;1264;22910;-56
2023/05/05 16:35:25;;;;;;;4.40;3.00;;;24.20;45.20;;;;;;222535;1263;23921;-57
2023/05/05 16:40:29;;;;;;;3.20;2.90;;;24.30;45.60;;;;;;222512;1263;24536;-56
2023/05/05 16:45:33;;;;;;;5.60;2.80;;;24.20;45.30;;;;;;222212;1263;24212;-57
2023/05/05 16:50:38;;;;;;;4.60;2.90;;;24.20;45.80;;;;;;222630;1260;24294;-62
2023/05/05 16:55:42;;;;;;;3.50;2.70;;;24.30;45.40;;;;;;222934;1263;25316;-61
2023/05/05 17:00:47;;;;;;;3.70;3.10;;;24.40;45.20;;;;;;222592;1263;25693;-55
2023/05/05 17:05:52;;;;;;;7.30;2.60;;;24.40;45.00;;;;;;222477;1263;24209;-54
2023/05/05 17:10:56;;;;;;;4.00;3.30;;;24.40;45.40;;;;;;222559;1264;25364;-52
2023/05/05 17:16:01;;;;;;;3.50;2.50;;;24.40;45.10;;;;;;222488;1267;23473;-55
2023/05/05 17:21:05;;;;;;;3.40;3.00;;;24.50;45.50;;;;;;222256;1262;24294;-54
2023/05/05 17:26:09;;;;;;;4.20;2.90;;;24.50;46.30;;;;;;222498;1266;22709;-50
2023/05/05 17:31:14;;;;;;;4.90;3.10;;;24.60;47.80;;;;;;222466;1266;25603;-56
2023/05/05 17:36:18;;;;;;;4.50;2.90;;;24.60;47.90;;;;;;222430;1266;25265;-52
2023/05/05 17:41:24;;;;;;;4.80;3.30;;;24.60;48.50;;;;;;222619;1267;24184;-53
2023/05/05 17:46:29;;;;;;;3.70;2.70;;;24.60;49.50;;;;;;222471;1251;24167;-51
2023/05/05 17:51:33;;;;;;;4.60;3.10;;;24.60;50.10;;;;;;222900;1264;24283;-55
2023/05/05 17:56:37;;;;;;;7.30;3.70;;;24.60;50.80;;;;;;223085;1257;22771;-58
2023/05/05 18:01:42;;;;;;;3.90;2.70;;;24.60;50.90;;;;;;222327;1260;23893;-55
2023/05/05 18:06:47;;;;;;;8.50;3.20;;;24.60;51.20;;;;;;222211;1264;22798;-58
2023/05/05 18:11:53;;;;;;;20.80;3.40;;;24.70;51.10;;;;;;222392;1266;22892;-56
2023/05/05 18:16:57;;;;;;;11.40;3.20;;;24.60;51.40;;;;;;222416;1266;22640;-57
2023/05/05 18:22:01;;;;;;;10.00;3.50;;;24.70;51.40;;;;;;222425;1262;23903;-57
2023/05/05 18:27:08;;;;;;;10.30;3.80;;;24.60;51.90;;;;;;222500;1263;25315;-57
2023/05/05 18:32:14;;;;;;;4.40;3.10;;;24.70;52.00;;;;;;221996;1253;24314;-57
2023/05/05 18:37:18;;;;;;;10.10;3.60;;;24.70;51.80;;;;;;222037;1269;25410;-60
2023/05/05 18:42:22;;;;;;;9.90;2.90;;;24.70;51.90;;;;;;222168;1263;24161;-58
2023/05/05 18:47:27;;;;;;;7.80;2.90;;;24.70;51.90;;;;;;222233;1268;24166;-61
2023/05/05 18:52:32;;;;;;;13.70;4.30;;;24.60;52.70;;;;;;222455;1263;25528;-59
2023/05/05 18:57:36;;;;;;;18.00;4.00;;;24.60;52.70;;;;;;222436;1263;23142;-62
2023/05/05 19:02:41;;;;;;;7.50;3.40;;;24.60;52.90;;;;;;222440;1266;22534;-60
2023/05/05 19:07:45;;;;;;;14.10;3.90;;;24.60;52.70;;;;;;222528;1263;22551;-63
2023/05/05 19:12:50;;;;;;;11.30;3.70;;;24.60;52.70;;;;;;221986;1259;22517;-58
2023/05/05 19:17:57;;;;;;;8.10;3.20;;;24.60;52.50;;;;;;222385;1262;24278;-58
2023/05/05 19:23:05;;;;;;;12.60;3.70;;;24.70;54.10;;;;;;222370;1266;22637;-58
2023/05/05 19:28:10;;;;;;;13.20;4.30;;;24.80;55.10;;;;;;222298;1257;24177;-58
2023/05/05 19:33:15;;;;;;;11.40;4.30;;;24.80;55.90;;;;;;222144;1263;23125;-57
2023/05/05 19:38:19;;;;;;;4.90;3.80;;;24.70;56.50;;;;;;222255;1250;25378;-57
2023/05/05 19:43:24;;;;;;;13.10;3.70;;;24.70;56.80;;;;;;222269;1269;22647;-60
2023/05/05 19:48:30;;;;;;;11.60;4.00;;;24.70;56.60;;;;;;222303;1263;22519;-64
2023/05/05 19:53:35;;;;;;;10.80;3.90;;;24.80;57.00;;;;;;221993;1267;23901;-60
2023/05/05 19:59:05;;;;;;;6.90;3.80;;;24.80;56.60;;;;;;222564;1257;22600;-60
2023/05/05 20:04:10;;;;;;;11.00;4.00;;;24.80;56.30;;;;;;222296;1263;22511;-60
2023/05/05 20:09:16;;;;;;;13.80;4.80;;;24.90;55.60;;;;;;222327;1259;22578;-59
2023/05/05 20:14:20;;;;;;;15.20;4.10;;;24.80;56.00;;;;;;222375;1266;22912;-59
2023/05/05 20:19:24;;;;;;;9.90;4.50;;;24.80;55.90;;;;;;222685;1264;22578;-60
2023/05/05 20:24:29;;;;;;;10.20;3.50;;;24.70;55.80;;;;;;222213;1262;22515;-57
2023/05/05 20:29:33;;;;;;;10.30;4.50;;;24.70;55.40;;;;;;222094;1263;24222;-59
2023/05/05 20:34:38;;;;;;;24.50;8.10;;;24.70;56.50;;;;;;222723;1263;22502;-59
2023/05/05 20:39:42;;;;;;;32.60;16.20;;;24.70;57.10;;;;;;222957;1263;25243;-63
2023/05/05 20:44:46;;;;;;;289.70;127.90;;;24.70;57.10;;;;;;222731;1263;25316;-62
2023/05/05 20:49:51;;;;;;;151.30;69.40;;;24.50;56.90;;;;;;222670;1246;24221;-57
2023/05/05 20:54:55;;;;;;;133.30;61.30;;;24.50;56.70;;;;;;222489;1266;23890;-62
2023/05/05 20:59:59;;;;;;;118.10;54.40;;;24.50;56.70;;;;;;222495;1269;24194;-59
2023/05/05 21:05:04;;;;;;;101.30;52.00;;;24.50;56.60;;;;;;222793;1263;25433;-60
2023/05/05 21:10:09;;;;;;;95.80;46.90;;;24.50;56.60;;;;;;222417;1268;22512;-62
2023/05/05 21:15:15;;;;;;;95.30;46.00;;;24.40;57.00;;;;;;222214;1263;23129;-60
2023/05/05 21:20:20;;;;;;;84.50;43.10;;;24.40;56.50;;;;;;222352;1262;22599;-58
2023/05/05 21:25:25;;;;;;;98.70;43.50;;;24.40;56.30;;;;;;222412;1263;25483;-62
2023/05/05 21:30:29;;;;;;;81.70;41.20;;;24.20;56.40;;;;;;222227;1263;25400;-58
2023/05/05 21:35:34;;;;;;;86.10;40.30;;;24.10;56.70;;;;;;222193;1269;22531;-58
2023/05/05 21:40:41;;;;;;;86.20;38.40;;;24.20;56.50;;;;;;222085;1256;25319;-60
2023/05/05 21:45:59;;;;;;;72.10;38.50;;;24.20;58.70;;;;;;222101;1263;22623;-59
2023/05/05 21:51:04;;;;;;;78.00;37.90;;;24.30;60.80;;;;;;222231;1259;22644;-61
2023/05/05 21:56:11;;;;;;;79.30;39.10;;;24.40;61.80;;;;;;222082;1263;22510;-63
2023/05/05 22:01:16;;;;;;;76.10;37.40;;;24.40;62.30;;;;;;222331;1263;22567;-60
2023/05/05 22:06:21;;;;;;;69.20;35.30;;;24.30;61.90;;;;;;222303;1262;24177;-62
2023/05/05 22:11:26;;;;;;;74.90;35.30;;;24.30;61.10;;;;;;222807;1263;22561;-62
2023/05/05 22:16:30;;;;;;;65.80;34.30;;;24.40;60.80;;;;;;222514;1263;24212;-64
2023/05/05 22:21:35;;;;;;;67.10;33.30;;;24.30;61.00;;;;;;222328;1266;22575;-60
2023/05/05 22:26:41;;;;;;;61.30;32.30;;;24.30;60.90;;;;;;222285;1247;24245;-60
2023/05/05 22:31:46;;;;;;;57.70;31.70;;;24.30;60.60;;;;;;222292;1263;22519;-59
2023/05/05 22:36:51;;;;;;;55.30;29.50;;;24.30;60.60;;;;;;222170;1263;22562;-59
2023/05/05 22:41:55;;;;;;;57.00;29.50;;;24.30;60.70;;;;;;222140;1257;22523;-60
2023/05/05 22:47:00;;;;;;;53.80;27.10;;;24.20;60.30;;;;;;222377;1266;24183;-58
2023/05/05 22:52:05;;;;;;;50.80;28.40;;;24.10;60.40;;;;;;222226;1263;26482;-59
2023/05/05 22:57:09;;;;;;;50.10;28.00;;;24.10;60.30;;;;;;222469;1263;22511;-62
2023/05/05 23:02:14;;;;;;;47.20;26.30;;;24.10;60.40;;;;;;222381;1266;24272;-60
2023/05/05 23:07:20;;;;;;;42.60;26.10;;;24.10;60.30;;;;;;222456;1260;24293;-58
2023/05/05 23:12:24;;;;;;;43.80;24.90;;;24.10;60.10;;;;;;222602;1266;24066;-58
2023/05/05 23:17:28;;;;;;;43.20;24.10;;;24.10;59.80;;;;;;222257;1263;22563;-60
2023/05/05 23:22:33;;;;;;;46.00;25.40;;;24.00;60.10;;;;;;222512;1263;22522;-58
2023/05/05 23:27:38;;;;;;;44.10;23.80;;;24.00;60.30;;;;;;222868;1263;24200;-60
2023/05/05 23:32:43;;;;;;;42.20;24.40;;;24.10;59.50;;;;;;222684;1263;24176;-59
2023/05/05 23:37:48;;;;;;;40.30;22.30;;;24.10;59.60;;;;;;222544;1262;22720;-60
2023/05/05 23:42:52;;;;;;;40.40;22.30;;;24.00;59.40;;;;;;222763;1259;24265;-58
2023/05/05 23:47:57;;;;;;;37.60;21.00;;;24.00;59.50;;;;;;222953;1266;22514;-63
2023/05/05 23:53:01;;;;;;;36.30;20.50;;;23.90;59.40;;;;;;222993;1246;24069;-59
2023/05/05 23:58:05;;;;;;;33.90;21.80;;;23.90;59.40;;;;;;222622;1263;25393;-57
